Playa Giron, Cuba
Current Conditions -  °F | °C
As of 4:54 PM on Saturday 22 Nov 2014 (Local Time) from MUCL Reporting Station
Few Clouds Few Clouds  
Wind Chill: 84°   Ceiling: Unl
Heat Index: 90°   Visibility: 6mi
Dew Point: 72°   Wind: 14mph
Humidity: 66%   Direction: 100°E
Pressure: 29.94"   Gusts: NA
Location:  22.07°N, 81.04°W
Report Text: MUCL 222054Z 10012KT 9999 FEW020 29/22 Q1014
Loading
Personal Weather Stations






























Interactive Weather Map New forecast layout! Learn more

10-Day Weather Forecast

Advertisements
Track Severe Weather on mobile